Tripoli, Lebanon
Current Conditions -  °F | °C
As of 9:00 PM on Thursday 18 Dec 2014 (Local Time) from OLBA Reporting Station
Broken Clouds Broken Clouds  
Wind Chill: 63°   Ceiling: 7000
Heat Index: 63°   Visibility: 5mi
Dew Point: 43°   Wind: 5mph
Humidity: 48%   Direction: 90°E
Pressure: 30.09"   Gusts: NA
Location:  34.45°N, 35.84°E
Report Text: OLBA 181800Z 09004KT 8000 BKN070 17/06 Q1019
Loading
Personal Weather Stations






























Interactive Weather Map New forecast layout! Learn more

10-Day Weather Forecast

Advertisements
Track Severe Weather on mobile